createdAt,value
2022-11-18T00:01:05.462Z,5.00
2022-11-18T00:03:31.899Z,4.50
2022-11-18T00:05:58.409Z,3.77
2022-11-18T00:08:25.855Z,3.50
2022-11-18T00:10:52.573Z,3.80
2022-11-18T00:13:37.360Z,3.33
2022-11-18T00:16:08.782Z,3.70
2022-11-18T00:18:35.796Z,3.33
2022-11-18T00:21:10.563Z,4.57
2022-11-18T00:23:37.566Z,4.10
2022-11-18T00:26:12.857Z,4.63
2022-11-18T00:28:40.155Z,5.63
2022-11-18T00:31:08.856Z,4.50
2022-11-18T00:33:36.915Z,4.00
2022-11-18T00:36:09.370Z,4.37
2022-11-18T00:38:35.935Z,4.07
2022-11-18T00:41:03.808Z,3.57
2022-11-18T00:43:30.407Z,3.00
2022-11-18T00:45:57.546Z,3.30
2022-11-18T00:48:24.290Z,3.23
2022-11-18T00:50:52.079Z,2.70
2022-11-18T00:53:20.142Z,2.30
2022-11-18T00:55:46.960Z,3.00
2022-11-18T00:58:16.435Z,3.37
2022-11-18T01:00:48.622Z,3.43
2022-11-18T01:03:15.840Z,3.13
2022-11-18T01:05:42.519Z,2.93
2022-11-18T01:08:10.174Z,2.70
2022-11-18T01:10:37.511Z,3.20
2022-11-18T01:13:20.175Z,3.27
2022-11-18T01:15:54.955Z,2.83
2022-11-18T01:18:24.252Z,2.70
2022-11-18T01:20:51.019Z,2.60
2022-11-18T01:23:19.066Z,3.17
2022-11-18T01:25:46.758Z,2.73
2022-11-18T01:28:15.480Z,2.10
2022-11-18T01:30:44.275Z,4.30
2022-11-18T01:33:10.775Z,2.47
2022-11-18T01:35:44.207Z,3.03
2022-11-18T01:38:12.368Z,2.80
2022-11-18T01:40:39.615Z,3.30
2022-11-18T01:43:11.965Z,2.80
2022-11-18T01:45:39.219Z,2.70
2022-11-18T01:48:28.980Z,2.80
2022-11-18T01:50:59.362Z,2.90
2022-11-18T01:53:28.240Z,2.30
2022-11-18T01:55:56.664Z,2.30
2022-11-18T01:58:37.915Z,3.43
2022-11-18T02:01:05.814Z,2.47
2022-11-18T02:03:33.333Z,3.10
2022-11-18T02:06:00.706Z,3.27
2022-11-18T02:08:28.430Z,2.63
2022-11-18T02:10:54.956Z,2.70
2022-11-18T02:13:22.089Z,2.67
2022-11-18T02:16:01.145Z,2.37
2022-11-18T02:18:55.214Z,2.53
2022-11-18T02:21:48.750Z,1.93
2022-11-18T02:24:27.832Z,2.37
2022-11-18T02:27:29.640Z,2.30
2022-11-18T02:29:59.718Z,2.10
2022-11-18T02:32:48.437Z,2.60
2022-11-18T02:35:24.261Z,2.13
2022-11-18T02:37:55.245Z,2.37
2022-11-18T02:40:25.958Z,2.37
2022-11-18T02:42:56.684Z,2.80
2022-11-18T02:45:23.689Z,3.07
2022-11-18T02:47:50.846Z,2.50
2022-11-18T02:50:21.365Z,2.50
2022-11-18T02:52:53.411Z,1.70
2022-11-18T02:55:20.451Z,2.20
2022-11-18T02:57:47.810Z,1.93
2022-11-18T03:00:14.988Z,2.17
2022-11-18T03:02:49.829Z,2.20
2022-11-18T03:05:26.268Z,2.23
2022-11-18T03:07:57.953Z,1.97
2022-11-18T03:10:25.968Z,2.00
2022-11-18T03:13:09.223Z,2.10
2022-11-18T03:15:53.807Z,2.37
2022-11-18T03:18:27.913Z,2.33
2022-11-18T03:21:10.466Z,2.10
2022-11-18T03:23:45.600Z,2.03
2022-11-18T03:26:17.869Z,2.37
2022-11-18T03:29:10.966Z,3.33
2022-11-18T03:31:40.915Z,3.40
2022-11-18T03:34:19.258Z,2.47
2022-11-18T03:36:51.746Z,3.00
2022-11-18T03:39:20.549Z,3.17
2022-11-18T03:41:51.694Z,2.70
2022-11-18T03:44:23.272Z,2.97
2022-11-18T03:46:54.939Z,3.33
2022-11-18T03:49:30.339Z,3.07
2022-11-18T03:52:03.355Z,3.43
2022-11-18T03:54:31.636Z,2.90
2022-11-18T03:57:00.641Z,3.23
2022-11-18T03:59:38.742Z,3.60
2022-11-18T04:02:15.043Z,3.60
2022-11-18T04:04:42.364Z,3.40
2022-11-18T04:10:00.277Z,4.17
2022-11-18T04:12:28.250Z,4.10
2022-11-18T04:14:55.529Z,5.20
2022-11-18T04:17:24.158Z,4.70
2022-11-18T04:19:51.146Z,5.27
2022-11-18T04:22:19.250Z,4.27
2022-11-18T04:24:45.950Z,5.77
2022-11-18T04:27:12.966Z,6.00
2022-11-18T04:29:39.602Z,4.60
2022-11-18T04:32:06.226Z,4.40
2022-11-18T04:34:32.710Z,4.37
2022-11-18T04:36:59.425Z,3.30
2022-11-18T04:39:25.932Z,4.00
2022-11-18T04:41:55.452Z,3.43
2022-11-18T04:44:26.679Z,4.90
2022-11-18T04:46:54.041Z,4.53
2022-11-18T04:49:20.877Z,3.83
2022-11-18T04:51:48.187Z,4.17
2022-11-18T04:54:15.354Z,4.00
2022-11-18T04:56:47.513Z,5.20
2022-11-18T04:59:18.020Z,5.10
2022-11-18T05:01:45.186Z,6.33
2022-11-18T05:04:14.344Z,11.33
2022-11-18T05:06:41.066Z,8.00
2022-11-18T05:09:07.872Z,7.90
2022-11-18T05:11:53.162Z,5.83
2022-11-18T05:14:19.822Z,4.13
2022-11-18T05:16:46.363Z,5.70
2022-11-18T05:19:13.000Z,7.10
2022-11-18T05:21:39.926Z,5.70
2022-11-18T05:24:06.765Z,6.17
2022-11-18T05:26:33.581Z,4.60
2022-11-18T05:29:00.219Z,4.80
2022-11-18T05:31:26.794Z,5.80
2022-11-18T05:33:53.365Z,4.80
2022-11-18T05:36:21.017Z,4.37
2022-11-18T05:38:47.811Z,4.83
2022-11-18T05:41:34.284Z,4.80
2022-11-18T05:44:01.518Z,5.43
2022-11-18T05:46:28.663Z,5.20
2022-11-18T05:48:55.411Z,4.57
2022-11-18T05:51:22.033Z,4.87
2022-11-18T05:53:49.626Z,5.77
2022-11-18T05:56:20.672Z,4.60
2022-11-18T05:58:47.405Z,5.00
2022-11-18T06:01:18.279Z,4.60
2022-11-18T06:03:44.929Z,4.90
2022-11-18T06:06:13.431Z,5.77
2022-11-18T06:08:46.463Z,4.80
2022-11-18T06:11:15.879Z,5.10
2022-11-18T06:13:50.396Z,4.20
2022-11-18T06:16:20.739Z,4.40
2022-11-18T06:18:47.280Z,4.30
2022-11-18T06:21:23.859Z,3.70
2022-11-18T06:23:50.634Z,3.70
2022-11-18T06:26:17.505Z,4.30
2022-11-18T06:28:45.638Z,3.47
2022-11-18T06:31:12.811Z,4.87
2022-11-18T06:33:39.453Z,3.27
2022-11-18T06:36:06.319Z,3.90
2022-11-18T06:38:34.397Z,4.87
2022-11-18T06:41:01.984Z,3.20
2022-11-18T06:43:44.035Z,3.50
2022-11-18T06:46:32.278Z,3.27
2022-11-18T06:48:59.226Z,3.17
2022-11-18T06:51:26.703Z,4.13
2022-11-18T06:53:53.789Z,3.93
2022-11-18T06:56:21.611Z,4.00
2022-11-18T06:58:48.302Z,3.87
2022-11-18T07:01:21.756Z,4.20
2022-11-18T07:03:48.685Z,4.50
2022-11-18T07:06:18.208Z,4.30
2022-11-18T07:08:47.799Z,5.37
2022-11-18T07:11:16.771Z,5.90
2022-11-18T07:13:44.140Z,6.30
2022-11-18T07:16:18.917Z,6.10
2022-11-18T07:18:46.789Z,7.10
2022-11-18T07:21:15.387Z,8.90
2022-11-18T07:23:42.210Z,8.00
2022-11-18T07:26:09.048Z,8.70
2022-11-18T07:28:36.214Z,8.70
2022-11-18T07:31:10.941Z,8.07
2022-11-18T07:33:38.211Z,8.40
2022-11-18T07:36:10.393Z,6.97
2022-11-18T07:38:37.106Z,6.93
2022-11-18T07:41:18.003Z,7.40
2022-11-18T07:43:46.220Z,6.97
2022-11-18T07:46:13.896Z,6.87
2022-11-18T07:48:41.684Z,6.60
2022-11-18T07:51:08.760Z,6.97
2022-11-18T07:53:36.302Z,8.13
2022-11-18T07:56:03.782Z,11.50
2022-11-18T07:58:30.675Z,10.13
2022-11-18T08:00:57.693Z,19.90
2022-11-18T08:03:28.019Z,12.80
2022-11-18T08:05:59.769Z,9.03
2022-11-18T08:08:26.769Z,6.93
2022-11-18T08:10:57.446Z,6.30
2022-11-18T08:13:25.212Z,6.07
2022-11-18T08:15:52.213Z,8.93
2022-11-18T08:18:18.926Z,8.33
2022-11-18T08:20:45.614Z,8.20
2022-11-18T08:23:12.809Z,7.23
2022-11-18T08:25:40.549Z,11.07
2022-11-18T08:28:07.501Z,6.77
2022-11-18T08:30:34.955Z,6.37
2022-11-18T08:33:01.787Z,9.10
2022-11-18T08:35:29.862Z,6.50
2022-11-18T08:37:56.433Z,6.30
2022-11-18T08:40:23.165Z,6.50
2022-11-18T08:42:49.681Z,6.33
2022-11-18T08:45:16.457Z,5.87
2022-11-18T08:47:42.911Z,6.17
2022-11-18T08:50:11.288Z,6.73
2022-11-18T08:52:38.380Z,7.17
2022-11-18T08:55:05.163Z,6.40
2022-11-18T08:57:31.686Z,6.03
2022-11-18T08:59:58.261Z,6.57
2022-11-18T09:02:24.822Z,7.77
2022-11-18T09:04:51.941Z,7.60
2022-11-18T09:07:19.926Z,6.47
2022-11-18T09:09:46.461Z,7.93
2022-11-18T09:12:15.059Z,7.50
2022-11-18T09:17:29.712Z,8.70
2022-11-18T09:19:56.147Z,8.53
2022-11-18T09:22:22.660Z,8.73
2022-11-18T09:24:49.675Z,9.60
2022-11-18T09:27:17.564Z,7.53
2022-11-18T09:29:45.049Z,8.70
2022-11-18T09:32:11.814Z,10.93
2022-11-18T09:34:38.352Z,13.90
2022-11-18T09:37:06.507Z,12.27
2022-11-18T09:39:37.083Z,10.87
2022-11-18T09:42:26.473Z,13.40
2022-11-18T09:45:24.732Z,11.27
2022-11-18T09:47:51.925Z,8.90
2022-11-18T09:53:16.222Z,19.87
2022-11-18T09:55:42.880Z,8.60
2022-11-18T09:58:15.749Z,7.30
2022-11-18T10:00:42.455Z,8.03
2022-11-18T10:03:35.618Z,6.73
2022-11-18T10:06:23.858Z,8.67
2022-11-18T10:09:02.791Z,7.40
2022-11-18T10:11:40.223Z,7.00
2022-11-18T10:14:08.099Z,7.73
2022-11-18T10:17:04.071Z,7.00
2022-11-18T10:19:33.400Z,7.03
2022-11-18T10:22:23.794Z,6.30
2022-11-18T10:24:56.259Z,6.40
2022-11-18T10:27:35.092Z,7.17
2022-11-18T10:30:01.726Z,6.30
2022-11-18T10:32:28.439Z,7.20
2022-11-18T10:34:57.384Z,7.33
2022-11-18T10:37:45.350Z,5.60
2022-11-18T10:40:27.213Z,6.00
2022-11-18T10:42:53.757Z,6.37
2022-11-18T10:45:23.345Z,5.30
2022-11-18T10:48:09.955Z,5.47
2022-11-18T10:50:41.865Z,4.97
2022-11-18T10:53:33.943Z,5.83
2022-11-18T10:56:06.298Z,5.83
2022-11-18T10:58:37.503Z,6.67
2022-11-18T11:01:08.931Z,6.23
2022-11-18T11:03:38.156Z,6.00
2022-11-18T11:06:26.917Z,6.40
2022-11-18T11:08:54.447Z,6.40
2022-11-18T11:11:31.615Z,6.10
2022-11-18T11:14:19.516Z,6.40
2022-11-18T11:16:59.329Z,6.80
2022-11-18T11:19:41.940Z,7.23
2022-11-18T11:22:10.379Z,6.17
2022-11-18T11:24:36.880Z,6.60
2022-11-18T11:30:21.240Z,7.47
2022-11-18T11:33:06.004Z,7.40
2022-11-18T11:35:44.272Z,6.03
2022-11-18T11:38:46.244Z,6.90
2022-11-18T11:41:20.792Z,7.97
2022-11-18T11:44:24.665Z,7.47
2022-11-18T11:47:22.903Z,8.30
2022-11-18T11:49:52.473Z,6.70
2022-11-18T11:52:29.700Z,7.47
2022-11-18T11:54:56.134Z,7.50
2022-11-18T11:57:47.125Z,7.27
2022-11-18T12:00:15.330Z,7.23
2022-11-18T12:03:19.503Z,6.40
2022-11-18T12:05:46.206Z,8.03
2022-11-18T12:08:13.516Z,6.57
2022-11-18T12:10:54.033Z,6.93
2022-11-18T12:13:48.484Z,7.57
2022-11-18T12:16:18.844Z,8.17
2022-11-18T12:18:58.090Z,6.10
2022-11-18T12:21:46.500Z,7.40
2022-11-18T12:24:27.273Z,6.70
2022-11-18T12:26:53.742Z,7.30
2022-11-18T12:29:20.496Z,7.00
2022-11-18T12:31:49.068Z,7.00
2022-11-18T12:34:20.477Z,8.00
2022-11-18T12:36:47.389Z,6.50
2022-11-18T12:39:26.182Z,8.37
2022-11-18T12:42:17.868Z,7.30
2022-11-18T12:44:52.267Z,7.80
2022-11-18T12:47:37.128Z,6.20
2022-11-18T12:50:10.804Z,7.33
2022-11-18T12:52:37.224Z,7.20
2022-11-18T12:55:05.086Z,7.60
2022-11-18T12:57:34.945Z,7.70
2022-11-18T13:00:28.549Z,7.30
2022-11-18T13:02:57.691Z,8.17
2022-11-18T13:05:25.351Z,8.33
2022-11-18T13:08:15.969Z,7.50
2022-11-18T13:11:16.891Z,8.07
2022-11-18T13:13:44.179Z,8.20
2022-11-18T13:16:44.565Z,7.70
2022-11-18T13:19:21.620Z,8.97
2022-11-18T13:22:12.837Z,9.10
2022-11-18T13:24:44.413Z,7.43
2022-11-18T13:27:37.214Z,9.20
2022-11-18T13:30:11.186Z,9.17
2022-11-18T13:32:43.571Z,8.30
2022-11-18T13:35:21.697Z,8.33
2022-11-18T13:37:54.312Z,9.23
2022-11-18T13:40:22.381Z,10.20
2022-11-18T13:42:49.014Z,9.33
2022-11-18T13:45:15.783Z,8.77
2022-11-18T13:47:47.833Z,12.20
2022-11-18T13:50:14.338Z,8.80
2022-11-18T13:52:44.397Z,9.80
2022-11-18T13:55:25.884Z,8.10
2022-11-18T13:57:59.136Z,13.20
2022-11-18T14:00:28.602Z,12.10
2022-11-18T14:03:04.355Z,13.70
2022-11-18T14:05:31.009Z,10.80
2022-11-18T14:08:04.974Z,11.07
2022-11-18T14:10:40.700Z,10.57
2022-11-18T14:13:17.418Z,11.43
2022-11-18T14:15:44.618Z,14.50
2022-11-18T14:18:40.156Z,34.30
2022-11-18T14:21:09.444Z,16.97
2022-11-18T14:23:37.009Z,15.80
2022-11-18T14:26:05.626Z,15.80
2022-11-18T14:28:34.152Z,18.73
2022-11-18T14:31:12.722Z,18.97
2022-11-18T14:33:39.547Z,19.97
2022-11-18T14:36:15.424Z,20.93
2022-11-18T14:41:47.478Z,22.27
2022-11-18T14:44:14.843Z,21.97
2022-11-18T14:46:43.449Z,24.47
2022-11-18T14:49:16.057Z,22.00
2022-11-18T14:51:42.985Z,22.73
2022-11-18T14:54:23.771Z,22.50
2022-11-18T14:56:54.738Z,25.57
2022-11-18T14:59:21.720Z,23.20
2022-11-18T15:01:48.453Z,24.00
2022-11-18T15:04:17.258Z,24.20
2022-11-18T15:06:44.023Z,24.83
2022-11-18T15:09:11.930Z,24.03
2022-11-18T15:11:38.543Z,26.50
2022-11-18T15:14:05.266Z,25.77
2022-11-18T15:16:34.549Z,26.10
2022-11-18T15:19:03.184Z,28.40
2022-11-18T15:21:29.976Z,25.33
2022-11-18T15:23:56.512Z,24.80
2022-11-18T15:26:43.230Z,25.47
2022-11-18T15:29:23.559Z,25.93
2022-11-18T15:31:50.482Z,24.90
2022-11-18T15:34:18.751Z,25.73
2022-11-18T15:36:46.003Z,22.57
2022-11-18T15:39:12.911Z,22.33
2022-11-18T15:41:40.729Z,21.30
2022-11-18T15:44:07.232Z,22.97
2022-11-18T15:46:33.773Z,22.30
2022-11-18T15:49:00.695Z,22.23
2022-11-18T15:51:28.854Z,19.30
2022-11-18T15:53:55.646Z,18.00
2022-11-18T15:56:30.243Z,18.07
2022-11-18T15:59:02.398Z,17.77
2022-11-18T16:01:31.955Z,18.43
2022-11-18T16:03:58.792Z,17.83
2022-11-18T16:06:25.810Z,16.17
2022-11-18T16:08:58.955Z,14.20
2022-11-18T16:11:46.121Z,14.70
2022-11-18T16:14:14.036Z,15.33
2022-11-18T16:16:42.022Z,13.13
2022-11-18T16:19:10.872Z,13.53
2022-11-18T16:21:39.310Z,12.47
2022-11-18T16:24:08.208Z,13.23
2022-11-18T16:26:35.268Z,14.00
2022-11-18T16:29:05.037Z,13.77
2022-11-18T16:31:40.912Z,14.10
2022-11-18T16:34:20.604Z,13.83
2022-11-18T16:36:49.547Z,12.57
2022-11-18T16:39:27.010Z,11.23
2022-11-18T16:42:03.859Z,9.10
2022-11-18T16:44:34.801Z,7.17
2022-11-18T16:47:01.618Z,6.90
2022-11-18T16:49:28.127Z,7.17
2022-11-18T16:51:55.950Z,9.77
2022-11-18T16:54:27.684Z,9.47
2022-11-18T16:56:55.521Z,10.97
2022-11-18T16:59:22.871Z,11.00
2022-11-18T17:01:50.752Z,9.97
2022-11-18T17:04:17.827Z,13.60
2022-11-18T17:06:46.185Z,10.90
2022-11-18T17:09:18.082Z,10.73
2022-11-18T17:11:45.055Z,12.63
2022-11-18T17:14:12.367Z,13.10
2022-11-18T17:16:39.060Z,13.80
2022-11-18T17:19:11.359Z,10.67
2022-11-18T17:21:44.289Z,12.70
2022-11-18T17:24:13.609Z,10.60
2022-11-18T17:26:40.402Z,8.80
2022-11-18T17:29:07.124Z,13.97
2022-11-18T17:31:33.972Z,11.80
2022-11-18T17:34:00.624Z,12.80
2022-11-18T17:36:27.425Z,9.77
2022-11-18T17:38:55.815Z,10.13
2022-11-18T17:41:43.446Z,11.30
2022-11-18T17:44:11.856Z,24.93
2022-11-18T17:46:38.895Z,11.77
2022-11-18T17:49:14.943Z,11.87
2022-11-18T17:51:41.728Z,13.00
2022-11-18T17:54:09.082Z,12.03
2022-11-18T17:56:35.854Z,11.90
2022-11-18T17:59:02.317Z,11.73
2022-11-18T18:01:28.876Z,12.90
2022-11-18T18:03:55.522Z,13.83
2022-11-18T18:06:22.773Z,13.70
2022-11-18T18:08:49.491Z,11.50
2022-11-18T18:11:17.836Z,10.10
2022-11-18T18:14:02.982Z,10.73
2022-11-18T18:16:31.378Z,10.10
2022-11-18T18:18:59.113Z,8.80
2022-11-18T18:21:26.185Z,9.43
2022-11-18T18:23:52.992Z,9.57
2022-11-18T18:26:19.807Z,9.73
2022-11-18T18:28:47.243Z,9.23
2022-11-18T18:31:15.437Z,9.03
2022-11-18T18:33:42.649Z,10.20
2022-11-18T18:36:12.949Z,8.00
2022-11-18T18:38:39.878Z,9.80
2022-11-18T18:41:10.098Z,10.53
2022-11-18T18:43:36.816Z,9.63
2022-11-18T18:46:24.544Z,8.73
2022-11-18T18:48:51.222Z,8.73
2022-11-18T18:51:18.574Z,8.73
2022-11-18T18:53:48.242Z,8.37
2022-11-18T18:56:15.361Z,7.80
2022-11-18T18:58:41.769Z,8.20
2022-11-18T19:01:13.634Z,6.43
2022-11-18T19:03:41.339Z,7.17
2022-11-18T19:06:50.086Z,7.97
2022-11-18T19:09:09.456Z,6.83
2022-11-18T19:11:55.546Z,6.37
2022-11-18T19:14:22.929Z,7.23
2022-11-18T19:16:50.408Z,6.97
2022-11-18T19:19:42.165Z,6.33
2022-11-18T19:22:10.310Z,5.30
2022-11-18T19:24:49.163Z,5.70
2022-11-18T19:27:19.916Z,4.60
2022-11-18T19:29:46.509Z,4.70
2022-11-18T19:32:13.601Z,5.40
2022-11-18T19:34:40.268Z,6.03
2022-11-18T19:37:06.783Z,6.83
2022-11-18T19:39:35.157Z,9.93
2022-11-18T19:42:01.638Z,8.23
2022-11-18T19:44:28.163Z,6.77
2022-11-18T19:46:54.675Z,7.17
2022-11-18T19:49:22.065Z,5.77
2022-11-18T19:51:48.967Z,5.17
2022-11-18T19:54:15.506Z,5.40
2022-11-18T19:56:42.062Z,5.90
2022-11-18T19:59:08.728Z,5.20
2022-11-18T20:01:35.321Z,4.43
2022-11-18T20:04:03.103Z,4.20
2022-11-18T20:06:29.711Z,4.80
2022-11-18T20:08:56.944Z,7.33
2022-11-18T20:11:24.746Z,4.47
2022-11-18T20:13:51.887Z,3.53
2022-11-18T20:16:24.095Z,3.60
2022-11-18T20:18:56.241Z,3.63
2022-11-18T20:21:23.783Z,3.67
2022-11-18T20:24:01.231Z,3.73
2022-11-18T20:26:31.767Z,3.80
2022-11-18T20:28:58.421Z,3.40
2022-11-18T20:31:26.262Z,3.70
2022-11-18T20:33:54.291Z,2.53
2022-11-18T20:36:23.106Z,2.90
2022-11-18T20:38:58.319Z,3.30
2022-11-18T20:41:25.940Z,3.70
2022-11-18T20:43:53.044Z,3.80
2022-11-18T20:46:21.823Z,3.17
2022-11-18T20:48:49.322Z,3.27
2022-11-18T20:51:23.535Z,3.73
2022-11-18T20:53:51.390Z,3.47
2022-11-18T20:56:20.360Z,3.40
2022-11-18T20:58:47.331Z,3.40
2022-11-18T21:01:19.726Z,3.50
2022-11-18T21:03:57.256Z,3.10
2022-11-18T21:06:26.301Z,3.33
2022-11-18T21:09:00.597Z,2.97
2022-11-18T21:11:27.617Z,3.27
2022-11-18T21:14:16.004Z,3.37
2022-11-18T21:16:45.611Z,2.63
2022-11-18T21:19:12.273Z,3.83
2022-11-18T21:21:44.970Z,3.70
2022-11-18T21:24:20.624Z,3.00
2022-11-18T21:26:48.570Z,3.40
2022-11-18T21:29:16.212Z,4.50
2022-11-18T21:31:43.636Z,2.90
2022-11-18T21:34:11.461Z,3.17
2022-11-18T21:36:44.311Z,3.50
2022-11-18T21:39:13.926Z,3.03
2022-11-18T21:41:40.632Z,3.47
2022-11-18T21:44:11.746Z,2.63
2022-11-18T21:46:40.298Z,3.33
2022-11-18T21:49:07.395Z,3.50
2022-11-18T21:51:34.702Z,3.10
2022-11-18T21:54:01.697Z,3.10
2022-11-18T21:56:33.246Z,2.87
2022-11-18T21:59:01.029Z,2.93
2022-11-18T22:01:30.227Z,2.87
2022-11-18T22:03:59.146Z,3.10
2022-11-18T22:06:29.575Z,3.27
2022-11-18T22:08:56.607Z,4.47
2022-11-18T22:11:24.120Z,3.77
2022-11-18T22:13:51.934Z,3.60
2022-11-18T22:16:20.328Z,3.50
2022-11-18T22:18:53.094Z,3.77
2022-11-18T22:21:21.690Z,3.23
2022-11-18T22:23:48.369Z,3.47
2022-11-18T22:26:17.998Z,3.43
2022-11-18T22:28:45.110Z,4.10
2022-11-18T22:31:17.169Z,3.63
2022-11-18T22:33:43.669Z,3.17
2022-11-18T22:36:15.268Z,3.50
2022-11-18T22:38:43.381Z,3.60
2022-11-18T22:41:30.811Z,4.20
2022-11-18T22:43:59.467Z,4.07
2022-11-18T22:46:29.214Z,3.80
2022-11-18T22:48:56.696Z,5.10
2022-11-18T22:51:23.456Z,4.80
2022-11-18T22:53:56.561Z,4.40
2022-11-18T22:56:31.098Z,5.00
2022-11-18T22:58:57.652Z,6.03
2022-11-18T23:01:24.436Z,4.90
2022-11-18T23:03:52.904Z,5.67
2022-11-18T23:06:19.543Z,5.73
2022-11-18T23:08:47.279Z,5.63
2022-11-18T23:11:36.104Z,5.47
2022-11-18T23:14:04.641Z,5.13
2022-11-18T23:16:33.033Z,5.70
2022-11-18T23:19:00.884Z,5.60
2022-11-18T23:21:27.374Z,5.87
2022-11-18T23:23:53.916Z,5.90
2022-11-18T23:26:20.711Z,6.87
2022-11-18T23:28:47.188Z,6.90
2022-11-18T23:31:19.415Z,6.67
2022-11-18T23:33:46.371Z,6.20
2022-11-18T23:36:15.603Z,6.70
2022-11-18T23:38:42.367Z,6.93
2022-11-18T23:41:11.157Z,6.50
2022-11-18T23:43:38.408Z,6.40
2022-11-18T23:46:06.241Z,6.50
2022-11-18T23:48:37.449Z,5.93
2022-11-18T23:51:09.332Z,7.20
2022-11-18T23:53:36.419Z,7.30
2022-11-18T23:56:06.048Z,8.13
2022-11-18T23:58:32.686Z,7.90
